createdAt,value
2023-01-31T00:01:41.095Z,75.60
2023-01-31T00:04:11.926Z,75.70
2023-01-31T00:06:42.179Z,75.60
2023-01-31T00:09:11.047Z,75.70
2023-01-31T00:11:38.584Z,75.70
2023-01-31T00:14:07.047Z,75.80
2023-01-31T00:16:35.093Z,75.80
2023-01-31T00:19:02.622Z,75.90
2023-01-31T00:21:30.796Z,76.10
2023-01-31T00:23:58.829Z,76.20
2023-01-31T00:26:29.794Z,76.20
2023-01-31T00:28:58.605Z,76.10
2023-01-31T00:31:27.828Z,76.10
2023-01-31T00:33:55.987Z,76.00
2023-01-31T00:36:25.888Z,76.00
2023-01-31T00:38:55.342Z,76.80
2023-01-31T00:41:29.939Z,76.20
2023-01-31T00:43:57.700Z,76.20
2023-01-31T00:46:25.080Z,76.30
2023-01-31T00:48:52.920Z,76.30
2023-01-31T00:51:20.914Z,76.30
2023-01-31T00:53:48.096Z,76.40
2023-01-31T00:56:20.917Z,76.60
2023-01-31T00:58:47.877Z,76.60
2023-01-31T01:01:21.853Z,76.60
2023-01-31T01:03:50.705Z,76.80
2023-01-31T01:06:18.089Z,76.80
2023-01-31T01:08:45.610Z,76.70
2023-01-31T01:11:21.801Z,77.00
2023-01-31T01:13:49.437Z,76.80
2023-01-31T01:16:24.973Z,76.90
2023-01-31T01:18:55.155Z,76.90
2023-01-31T01:21:25.209Z,76.80
2023-01-31T01:23:53.049Z,76.90
2023-01-31T01:26:25.143Z,76.90
2023-01-31T01:28:53.642Z,76.80
2023-01-31T01:31:22.203Z,76.80
2023-01-31T01:33:49.848Z,76.70
2023-01-31T01:36:22.293Z,76.70
2023-01-31T01:38:49.545Z,76.90
2023-01-31T01:41:16.749Z,77.00
2023-01-31T01:43:49.773Z,77.20
2023-01-31T01:46:18.909Z,77.40
2023-01-31T01:48:49.638Z,77.40
2023-01-31T01:51:19.491Z,77.40
2023-01-31T01:53:50.422Z,77.30
2023-01-31T01:56:23.355Z,77.40
2023-01-31T01:58:54.674Z,77.40
2023-01-31T02:01:23.174Z,77.40
2023-01-31T02:03:53.115Z,77.30
2023-01-31T02:06:20.943Z,77.30
2023-01-31T02:08:48.566Z,77.30
2023-01-31T02:11:22.805Z,78.20
2023-01-31T02:14:00.881Z,77.60
2023-01-31T02:16:28.176Z,77.30
2023-01-31T02:18:56.397Z,77.10
2023-01-31T02:21:54.157Z,77.30
2023-01-31T02:24:41.049Z,77.30
2023-01-31T02:27:16.825Z,77.30
2023-01-31T02:30:18.731Z,77.40
2023-01-31T02:33:09.017Z,77.50
2023-01-31T02:36:18.489Z,77.30
2023-01-31T02:39:00.677Z,77.00
2023-01-31T02:41:56.239Z,77.10
2023-01-31T02:44:59.353Z,77.60
2023-01-31T02:47:50.781Z,76.80
2023-01-31T02:50:32.440Z,76.90
2023-01-31T02:53:02.476Z,77.00
2023-01-31T02:55:54.960Z,76.80
2023-01-31T02:58:24.912Z,76.80
2023-01-31T03:00:57.809Z,76.90
2023-01-31T03:03:33.053Z,76.80
2023-01-31T03:06:35.736Z,76.80
2023-01-31T03:09:30.413Z,76.90
2023-01-31T03:12:19.700Z,76.80
2023-01-31T03:15:15.264Z,76.80
2023-01-31T03:17:51.204Z,76.60
2023-01-31T03:20:44.683Z,76.60
2023-01-31T03:23:14.403Z,76.70
2023-01-31T03:25:41.762Z,76.80
2023-01-31T03:28:14.656Z,76.70
2023-01-31T03:31:00.484Z,76.50
2023-01-31T03:33:35.224Z,76.50
2023-01-31T03:36:26.937Z,76.50
2023-01-31T03:39:12.391Z,76.70
2023-01-31T03:42:02.816Z,76.80
2023-01-31T03:44:30.496Z,76.90
2023-01-31T03:47:06.563Z,77.00
2023-01-31T03:49:34.689Z,76.70
2023-01-31T03:52:06.622Z,77.00
2023-01-31T03:54:43.204Z,76.80
2023-01-31T03:57:36.428Z,76.40
2023-01-31T04:00:07.467Z,76.40
2023-01-31T04:02:43.184Z,76.30
2023-01-31T04:05:17.549Z,76.40
2023-01-31T04:07:46.123Z,76.60
2023-01-31T04:10:20.891Z,76.70
2023-01-31T04:12:47.739Z,76.80
2023-01-31T04:15:15.091Z,76.70
2023-01-31T04:17:41.962Z,76.40
2023-01-31T04:20:10.710Z,76.50
2023-01-31T04:22:38.030Z,76.30
2023-01-31T04:25:06.133Z,76.20
2023-01-31T04:27:33.416Z,76.20
2023-01-31T04:30:00.693Z,76.20
2023-01-31T04:32:28.011Z,76.10
2023-01-31T04:34:54.918Z,76.10
2023-01-31T04:37:21.912Z,76.10
2023-01-31T04:39:50.138Z,76.40
2023-01-31T04:42:17.086Z,76.50
2023-01-31T04:44:44.166Z,76.50
2023-01-31T04:47:11.064Z,76.60
2023-01-31T04:49:38.178Z,76.60
2023-01-31T04:52:05.268Z,76.60
2023-01-31T04:54:32.995Z,76.50
2023-01-31T04:56:59.917Z,76.60
2023-01-31T04:59:26.870Z,76.60
2023-01-31T05:01:53.834Z,76.60
2023-01-31T05:04:22.328Z,76.50
2023-01-31T05:06:49.209Z,76.50
2023-01-31T05:09:16.710Z,76.50
2023-01-31T05:11:44.076Z,76.40
2023-01-31T05:14:10.959Z,76.20
2023-01-31T05:16:37.875Z,76.00
2023-01-31T05:19:04.763Z,76.10
2023-01-31T05:21:51.665Z,76.00
2023-01-31T05:24:20.237Z,76.10
2023-01-31T05:26:47.791Z,76.30
2023-01-31T05:29:14.994Z,76.40
2023-01-31T05:31:42.288Z,76.20
2023-01-31T05:34:10.685Z,76.20
2023-01-31T05:36:37.828Z,76.40
2023-01-31T05:39:04.764Z,76.70
2023-01-31T05:41:31.605Z,76.50
2023-01-31T05:43:58.491Z,76.50
2023-01-31T05:46:25.513Z,76.40
2023-01-31T05:48:52.383Z,76.00
2023-01-31T05:51:19.328Z,76.10
2023-01-31T05:53:47.196Z,76.10
2023-01-31T05:56:14.395Z,76.10
2023-01-31T05:58:41.252Z,76.10
2023-01-31T06:01:08.428Z,76.20
2023-01-31T06:03:35.350Z,76.10
2023-01-31T06:06:04.015Z,75.90
2023-01-31T06:08:30.974Z,75.90
2023-01-31T06:10:57.997Z,75.70
2023-01-31T06:13:24.986Z,76.50
2023-01-31T06:15:51.869Z,75.80
2023-01-31T06:18:18.777Z,75.90
2023-01-31T06:20:45.791Z,75.90
2023-01-31T06:23:12.610Z,76.00
2023-01-31T06:25:39.518Z,76.10
2023-01-31T06:28:06.464Z,76.10
2023-01-31T06:30:34.579Z,76.00
2023-01-31T06:33:02.054Z,75.90
2023-01-31T06:35:29.435Z,75.80
2023-01-31T06:37:56.557Z,75.80
2023-01-31T06:40:23.821Z,75.80
2023-01-31T06:42:50.751Z,75.90
2023-01-31T06:45:17.916Z,76.00
2023-01-31T06:47:45.730Z,75.90
2023-01-31T06:50:13.148Z,76.00
2023-01-31T06:52:40.871Z,75.90
2023-01-31T06:55:08.717Z,76.00
2023-01-31T06:57:35.720Z,76.20
2023-01-31T07:00:04.123Z,76.30
2023-01-31T07:02:31.348Z,76.20
2023-01-31T07:04:58.356Z,76.20
2023-01-31T07:07:25.432Z,76.30
2023-01-31T07:09:52.438Z,76.40
2023-01-31T07:12:19.330Z,76.40
2023-01-31T07:14:46.386Z,76.40
2023-01-31T07:17:13.484Z,76.40
2023-01-31T07:19:40.417Z,76.30
2023-01-31T07:22:07.281Z,76.20
2023-01-31T07:24:34.284Z,76.30
2023-01-31T07:27:01.258Z,76.30
2023-01-31T07:29:28.197Z,76.20
2023-01-31T07:31:55.530Z,75.80
2023-01-31T07:34:23.121Z,75.50
2023-01-31T07:36:50.982Z,75.40
2023-01-31T07:39:18.105Z,75.20
2023-01-31T07:41:44.950Z,75.30
2023-01-31T07:44:11.945Z,76.00
2023-01-31T07:46:40.452Z,75.30
2023-01-31T07:49:09.995Z,75.20
2023-01-31T07:51:38.846Z,75.40
2023-01-31T07:54:06.673Z,75.40
2023-01-31T07:56:33.700Z,75.20
2023-01-31T07:59:00.656Z,75.20
2023-01-31T08:01:49.501Z,75.10
2023-01-31T08:04:21.937Z,75.10
2023-01-31T08:06:52.946Z,74.90
2023-01-31T08:09:20.017Z,74.80
2023-01-31T08:11:47.313Z,74.80
2023-01-31T08:14:14.427Z,74.70
2023-01-31T08:16:41.437Z,74.60
2023-01-31T08:19:08.610Z,74.70
2023-01-31T08:21:35.508Z,74.80
2023-01-31T08:24:02.501Z,74.70
2023-01-31T08:26:29.512Z,74.80
2023-01-31T08:28:57.123Z,74.80
2023-01-31T08:31:26.556Z,75.00
2023-01-31T08:33:55.693Z,75.90
2023-01-31T08:36:25.456Z,75.20
2023-01-31T08:38:52.976Z,75.00
2023-01-31T08:41:21.721Z,74.90
2023-01-31T08:43:58.052Z,74.80
2023-01-31T08:46:27.357Z,75.00
2023-01-31T08:48:54.799Z,75.30
2023-01-31T08:51:22.847Z,75.50
2023-01-31T08:53:50.706Z,75.60
2023-01-31T08:56:18.082Z,75.90
2023-01-31T08:58:45.617Z,76.30
2023-01-31T09:01:17.977Z,76.60
2023-01-31T09:03:46.119Z,76.60
2023-01-31T09:06:16.382Z,76.80
2023-01-31T09:08:43.659Z,76.90
2023-01-31T09:11:10.705Z,76.90
2023-01-31T09:13:37.618Z,77.20
2023-01-31T09:16:10.875Z,77.40
2023-01-31T09:18:40.068Z,77.50
2023-01-31T09:21:11.878Z,77.50
2023-01-31T09:23:42.415Z,77.70
2023-01-31T09:26:11.284Z,77.70
2023-01-31T09:28:38.575Z,77.80
2023-01-31T09:31:07.248Z,77.90
2023-01-31T09:33:35.310Z,78.00
2023-01-31T09:36:13.897Z,78.00
2023-01-31T09:38:41.240Z,78.20
2023-01-31T09:41:38.967Z,78.20
2023-01-31T09:44:16.504Z,78.40
2023-01-31T09:47:09.541Z,78.50
2023-01-31T09:50:02.646Z,78.70
2023-01-31T09:52:32.097Z,78.90
2023-01-31T09:54:59.546Z,79.10
2023-01-31T09:58:01.444Z,79.10
2023-01-31T10:00:31.531Z,79.20
2023-01-31T10:03:10.483Z,79.20
2023-01-31T10:05:51.006Z,79.30
2023-01-31T10:08:42.856Z,79.40
2023-01-31T10:11:28.456Z,79.40
2023-01-31T10:14:01.455Z,79.70
2023-01-31T10:16:35.267Z,79.70
2023-01-31T10:19:29.280Z,79.10
2023-01-31T10:22:00.789Z,78.30
2023-01-31T10:24:41.789Z,77.90
2023-01-31T10:27:19.288Z,77.30
2023-01-31T10:29:53.613Z,76.50
2023-01-31T10:32:42.186Z,75.80
2023-01-31T10:35:25.141Z,74.70
2023-01-31T10:38:01.950Z,74.30
2023-01-31T10:40:42.041Z,74.00
2023-01-31T10:43:34.394Z,73.60
2023-01-31T10:46:02.463Z,73.10
2023-01-31T10:48:30.196Z,72.40
2023-01-31T10:51:18.576Z,72.00
2023-01-31T10:54:09.317Z,71.80
2023-01-31T10:56:41.231Z,71.30
2023-01-31T10:59:33.590Z,70.70
2023-01-31T11:02:04.742Z,70.10
2023-01-31T11:04:40.747Z,69.90
2023-01-31T11:07:08.351Z,69.60
2023-01-31T11:09:41.538Z,69.40
2023-01-31T11:12:09.081Z,69.20
2023-01-31T11:14:39.318Z,69.00
2023-01-31T11:17:22.158Z,68.90
2023-01-31T11:19:52.335Z,68.90
2023-01-31T11:22:33.734Z,69.00
2023-01-31T11:25:06.576Z,68.80
2023-01-31T11:27:42.417Z,68.60
2023-01-31T11:30:35.134Z,68.20
2023-01-31T11:33:02.324Z,68.10
2023-01-31T11:35:31.472Z,67.70
2023-01-31T11:38:23.089Z,67.90
2023-01-31T11:40:50.114Z,67.90
2023-01-31T11:43:19.831Z,67.70
2023-01-31T11:45:54.777Z,67.60
2023-01-31T11:48:40.416Z,67.10
2023-01-31T11:51:07.826Z,66.60
2023-01-31T11:53:46.944Z,66.60
2023-01-31T11:56:22.748Z,66.60
2023-01-31T11:58:56.543Z,66.50
2023-01-31T12:01:26.073Z,66.30
2023-01-31T12:04:03.444Z,66.20
2023-01-31T12:06:36.440Z,65.60
2023-01-31T12:09:21.185Z,65.00
2023-01-31T12:11:54.450Z,64.70
2023-01-31T12:14:21.889Z,65.10
2023-01-31T12:16:53.272Z,64.60
2023-01-31T12:19:41.382Z,64.60
2023-01-31T12:22:38.405Z,64.30
2023-01-31T12:25:05.333Z,63.40
2023-01-31T12:27:41.357Z,63.00
2023-01-31T12:30:29.323Z,62.10
2023-01-31T12:33:02.277Z,61.60
2023-01-31T12:35:40.982Z,61.80
2023-01-31T12:38:40.318Z,61.80
2023-01-31T12:41:22.271Z,62.10
2023-01-31T12:44:30.462Z,62.20
2023-01-31T12:47:48.188Z,62.40
2023-01-31T12:50:30.572Z,62.40
2023-01-31T12:53:15.691Z,62.20
2023-01-31T12:55:47.500Z,61.70
2023-01-31T12:58:17.179Z,61.80
2023-01-31T13:01:02.110Z,62.00
2023-01-31T13:03:59.031Z,61.50
2023-01-31T13:06:36.373Z,61.20
2023-01-31T13:09:20.984Z,61.20
2023-01-31T13:11:56.542Z,61.20
2023-01-31T13:14:27.731Z,61.40
2023-01-31T13:17:02.263Z,61.60
2023-01-31T13:19:34.995Z,61.90
2023-01-31T13:22:10.078Z,61.80
2023-01-31T13:24:41.169Z,61.70
2023-01-31T13:27:38.246Z,61.30
2023-01-31T13:30:17.490Z,61.10
2023-01-31T13:32:52.166Z,61.20
2023-01-31T13:35:26.524Z,61.30
2023-01-31T13:37:59.831Z,61.40
2023-01-31T13:40:34.998Z,61.40
2023-01-31T13:43:12.464Z,61.40
2023-01-31T13:45:46.105Z,61.50
2023-01-31T13:48:52.973Z,61.50
2023-01-31T13:51:56.617Z,61.10
2023-01-31T13:54:23.397Z,61.10
2023-01-31T13:56:54.457Z,61.20
2023-01-31T13:59:25.504Z,61.10
2023-01-31T14:01:55.025Z,61.20
2023-01-31T14:04:25.902Z,61.10
2023-01-31T14:06:55.511Z,60.90
2023-01-31T14:10:05.896Z,61.60
2023-01-31T14:12:37.647Z,60.80
2023-01-31T14:15:43.205Z,60.70
2023-01-31T14:18:10.189Z,60.30
2023-01-31T14:20:37.112Z,60.10
2023-01-31T14:23:29.389Z,60.10
2023-01-31T14:25:56.712Z,60.20
2023-01-31T14:28:25.598Z,60.60
2023-01-31T14:30:55.443Z,60.50
2023-01-31T14:33:25.170Z,60.50
2023-01-31T14:36:20.122Z,60.20
2023-01-31T14:39:05.759Z,59.70
2023-01-31T14:41:54.517Z,59.80
2023-01-31T14:44:40.544Z,59.90
2023-01-31T14:47:29.708Z,60.40
2023-01-31T14:50:07.411Z,60.90
2023-01-31T14:53:01.597Z,61.30
2023-01-31T14:55:39.465Z,61.60
2023-01-31T14:58:14.515Z,62.00
2023-01-31T15:00:55.919Z,62.40
2023-01-31T15:03:29.752Z,62.70
2023-01-31T15:06:15.812Z,63.00
2023-01-31T15:08:49.397Z,63.20
2023-01-31T15:11:40.687Z,63.50
2023-01-31T15:14:35.629Z,63.70
2023-01-31T15:17:34.538Z,64.00
2023-01-31T15:20:19.842Z,64.10
2023-01-31T15:22:48.785Z,64.40
2023-01-31T15:25:35.528Z,64.60
2023-01-31T15:28:03.818Z,64.90
2023-01-31T15:30:34.142Z,65.10
2023-01-31T15:33:08.466Z,65.40
2023-01-31T15:35:59.448Z,65.60
2023-01-31T15:38:41.497Z,65.80
2023-01-31T15:41:35.413Z,65.90
2023-01-31T15:44:32.274Z,66.10
2023-01-31T15:46:59.157Z,66.30
2023-01-31T15:49:39.706Z,66.30
2023-01-31T15:52:22.841Z,66.30
2023-01-31T15:55:02.732Z,66.30
2023-01-31T15:57:39.473Z,66.30
2023-01-31T16:00:07.525Z,66.50
2023-01-31T16:02:35.043Z,66.60
2023-01-31T16:05:06.269Z,66.60
2023-01-31T16:07:33.298Z,66.80
2023-01-31T16:10:04.167Z,66.80
2023-01-31T16:12:33.243Z,66.90
2023-01-31T16:15:05.187Z,67.00
2023-01-31T16:17:32.896Z,67.20
2023-01-31T16:19:59.849Z,68.10
2023-01-31T16:22:29.824Z,67.40
2023-01-31T16:24:59.661Z,67.40
2023-01-31T16:27:35.977Z,67.60
2023-01-31T16:30:03.602Z,67.50
2023-01-31T16:32:42.000Z,67.60
2023-01-31T16:35:23.419Z,67.60
2023-01-31T16:38:03.530Z,67.60
2023-01-31T16:40:33.956Z,67.60
2023-01-31T16:43:09.947Z,67.50
2023-01-31T16:45:37.099Z,67.60
2023-01-31T16:48:29.825Z,67.70
2023-01-31T16:50:58.615Z,67.80
2023-01-31T16:53:34.561Z,67.80
2023-01-31T16:56:13.623Z,67.80
2023-01-31T16:58:51.205Z,67.90
2023-01-31T17:01:28.503Z,68.00
2023-01-31T17:04:23.058Z,68.10
2023-01-31T17:07:01.057Z,68.10
2023-01-31T17:09:28.449Z,68.20
2023-01-31T17:19:11.568Z,68.30
2023-01-31T17:21:41.656Z,68.50
2023-01-31T17:24:17.778Z,68.60
2023-01-31T17:26:44.875Z,68.60
2023-01-31T17:29:12.455Z,68.60
2023-01-31T17:31:42.520Z,68.60
2023-01-31T17:34:16.666Z,68.70
2023-01-31T17:36:44.450Z,68.80
2023-01-31T17:39:11.411Z,68.90
2023-01-31T17:41:41.309Z,69.00
2023-01-31T17:44:12.735Z,69.00
2023-01-31T17:46:39.909Z,69.20
2023-01-31T17:49:06.774Z,69.30
2023-01-31T17:51:33.989Z,69.40
2023-01-31T17:54:00.905Z,69.50
2023-01-31T17:56:27.948Z,69.50
2023-01-31T17:58:54.813Z,69.60
2023-01-31T18:01:21.841Z,69.70
2023-01-31T18:03:49.188Z,69.80
2023-01-31T18:06:16.684Z,69.80
2023-01-31T18:08:43.466Z,70.00
2023-01-31T18:11:15.656Z,70.10
2023-01-31T18:13:43.499Z,70.20
2023-01-31T18:16:11.962Z,70.20
2023-01-31T18:18:40.745Z,70.20
2023-01-31T18:21:16.523Z,70.20
2023-01-31T18:23:44.066Z,70.20
2023-01-31T18:26:11.875Z,70.20
2023-01-31T18:28:41.926Z,70.30
2023-01-31T18:31:14.298Z,70.40
2023-01-31T18:33:44.232Z,70.30
2023-01-31T18:36:14.390Z,70.30
2023-01-31T18:38:46.793Z,70.10
2023-01-31T18:41:16.488Z,70.00
2023-01-31T18:43:45.341Z,69.90
2023-01-31T18:46:14.920Z,69.90
2023-01-31T18:48:42.106Z,69.90
2023-01-31T18:51:12.504Z,70.00
2023-01-31T18:53:45.419Z,69.70
2023-01-31T18:56:21.802Z,69.50
2023-01-31T18:58:49.971Z,69.50
2023-01-31T19:01:22.749Z,69.40
2023-01-31T19:03:53.047Z,69.40
2023-01-31T19:06:24.629Z,69.30
2023-01-31T19:08:53.023Z,69.40
2023-01-31T19:11:22.159Z,69.40
2023-01-31T19:13:49.223Z,69.40
2023-01-31T19:16:19.095Z,69.50
2023-01-31T19:18:46.776Z,69.50
2023-01-31T19:21:28.405Z,69.50
2023-01-31T19:23:57.654Z,69.40
2023-01-31T19:26:24.781Z,69.40
2023-01-31T19:28:51.893Z,69.40
2023-01-31T19:31:24.677Z,69.30
2023-01-31T19:33:56.742Z,69.40
2023-01-31T19:36:26.519Z,69.20
2023-01-31T19:38:53.636Z,69.20
2023-01-31T19:41:22.355Z,70.10
2023-01-31T19:43:51.006Z,69.50
2023-01-31T19:46:19.633Z,69.50
2023-01-31T19:48:46.899Z,69.70
2023-01-31T19:51:16.369Z,69.90
2023-01-31T19:53:45.469Z,70.10
2023-01-31T19:56:13.177Z,70.10
2023-01-31T19:58:40.631Z,70.10
2023-01-31T20:01:13.226Z,70.10
2023-01-31T20:03:40.409Z,70.10
2023-01-31T20:06:13.885Z,70.10
2023-01-31T20:08:41.060Z,70.10
2023-01-31T20:11:09.340Z,70.20
2023-01-31T20:13:36.599Z,70.10
2023-01-31T20:16:06.905Z,70.00
2023-01-31T20:18:35.407Z,69.90
2023-01-31T20:21:03.271Z,70.00
2023-01-31T20:23:30.211Z,70.00
2023-01-31T20:25:58.105Z,70.10
2023-01-31T20:28:26.671Z,70.30
2023-01-31T20:30:54.219Z,70.30
2023-01-31T20:33:21.418Z,70.40
2023-01-31T20:35:48.466Z,71.20
2023-01-31T20:38:19.295Z,70.50
2023-01-31T20:40:51.308Z,70.50
2023-01-31T20:43:19.885Z,70.60
2023-01-31T20:45:47.023Z,70.60
2023-01-31T20:48:14.136Z,70.60
2023-01-31T20:50:41.169Z,70.70
2023-01-31T20:53:18.587Z,70.80
2023-01-31T20:56:03.097Z,70.90
2023-01-31T20:58:32.600Z,71.00
2023-01-31T21:01:04.091Z,71.10
2023-01-31T21:03:32.649Z,71.20
2023-01-31T21:06:00.800Z,71.30
2023-01-31T21:08:28.623Z,71.40
2023-01-31T21:10:58.353Z,71.50
2023-01-31T21:13:31.521Z,71.60
2023-01-31T21:16:01.921Z,71.70
2023-01-31T21:18:31.136Z,71.80
2023-01-31T21:21:02.556Z,72.10
2023-01-31T21:23:29.520Z,72.20
2023-01-31T21:26:04.826Z,72.50
2023-01-31T21:28:35.010Z,73.10
2023-01-31T21:31:04.752Z,73.50
2023-01-31T21:33:32.216Z,73.90
2023-01-31T21:36:00.717Z,74.10
2023-01-31T21:38:27.769Z,74.30
2023-01-31T21:41:14.764Z,74.40
2023-01-31T21:43:41.672Z,74.40
2023-01-31T21:46:13.312Z,74.30
2023-01-31T21:48:43.171Z,74.30
2023-01-31T21:51:26.524Z,74.10
2023-01-31T21:54:05.830Z,74.10
2023-01-31T21:56:34.823Z,73.90
2023-01-31T21:59:11.299Z,73.80
2023-01-31T22:02:06.964Z,74.50
2023-01-31T22:04:35.891Z,73.60
2023-01-31T22:07:02.855Z,73.60
2023-01-31T22:09:29.722Z,73.40
2023-01-31T22:11:56.765Z,73.40
2023-01-31T22:14:23.750Z,73.40
2023-01-31T22:16:51.917Z,73.40
2023-01-31T22:19:18.949Z,73.40
2023-01-31T22:21:45.863Z,73.30
2023-01-31T22:24:12.891Z,73.30
2023-01-31T22:26:43.180Z,73.40
2023-01-31T22:29:13.070Z,73.30
2023-01-31T22:31:40.546Z,73.20
2023-01-31T22:34:12.234Z,73.20
2023-01-31T22:36:39.953Z,73.20
2023-01-31T22:39:07.129Z,73.10
2023-01-31T22:41:34.079Z,73.10
2023-01-31T22:44:01.622Z,73.00
2023-01-31T22:46:29.416Z,72.90
2023-01-31T22:48:56.754Z,73.00
2023-01-31T22:51:26.417Z,72.90
2023-01-31T22:53:54.853Z,72.80
2023-01-31T22:56:27.956Z,72.80
2023-01-31T22:59:00.721Z,72.70
2023-01-31T23:01:31.053Z,72.80
2023-01-31T23:03:59.790Z,73.50
2023-01-31T23:06:28.242Z,72.60
2023-01-31T23:08:55.933Z,72.60
2023-01-31T23:11:23.803Z,72.60
2023-01-31T23:13:51.042Z,72.60
2023-01-31T23:16:21.223Z,72.50
2023-01-31T23:18:48.716Z,72.50
2023-01-31T23:21:19.589Z,72.50
2023-01-31T23:23:47.449Z,72.40
2023-01-31T23:26:14.474Z,72.40
2023-01-31T23:28:41.431Z,72.40
2023-01-31T23:31:08.575Z,72.40
2023-01-31T23:33:35.571Z,72.30
2023-01-31T23:36:02.910Z,72.20
2023-01-31T23:38:29.903Z,72.20
2023-01-31T23:40:57.334Z,72.20
2023-01-31T23:43:24.379Z,72.20
2023-01-31T23:45:51.307Z,72.00
2023-01-31T23:48:19.064Z,72.00
2023-01-31T23:50:46.022Z,72.00
2023-01-31T23:53:12.945Z,72.10
2023-01-31T23:55:40.248Z,72.10
2023-01-31T23:58:07.213Z,72.10
